Time;durP1;ratioP1;P1;durP2;ratioP2;P2;SDS_P1;SDS_P2;PMS_P1;PMS_P2;Temp;Humidity;BMP_temperature;BMP_pressure;BME280_temperature;BME280_humidity;BME280_pressure;Samples;Min_cycle;Max_cycle;Signal;HPM_P1;HPM_P2
2023/08/25 00:03:01;;;;;;;3.53;2.15;;;;;;;21.90;100.00;100638.44;6327405;28;20048;-71
2023/08/25 00:06:02;;;;;;;5.68;1.60;;;;;;;21.93;100.00;100634.59;6326692;28;20351;-71
2023/08/25 00:09:04;;;;;;;3.97;2.22;;;;;;;21.88;100.00;100612.84;6327298;28;20447;-71
2023/08/25 00:12:06;;;;;;;5.00;2.30;;;;;;;21.83;100.00;100623.19;6326989;28;20396;-71
2023/08/25 00:15:10;;;;;;;4.30;1.85;;;;;;;21.82;100.00;100608.97;6326601;28;20360;-71
2023/08/25 00:18:12;;;;;;;3.35;2.30;;;;;;;21.74;100.00;100608.91;6326794;28;20040;-71
2023/08/25 00:21:13;;;;;;;4.70;1.63;;;;;;;21.74;100.00;100604.41;6327123;28;20432;-71
2023/08/25 00:24:15;;;;;;;2.55;1.67;;;;;;;21.72;100.00;100595.69;6326826;28;20359;-71
2023/08/25 00:27:16;;;;;;;2.80;1.83;;;;;;;21.69;100.00;100601.34;6326644;28;20051;-71
2023/08/25 00:30:19;;;;;;;6.18;1.60;;;;;;;21.69;100.00;100589.81;6326098;28;20436;-71
2023/08/25 00:33:21;;;;;;;2.47;1.80;;;;;;;21.67;100.00;100586.47;6316519;28;20436;-72
2023/08/25 00:36:24;;;;;;;3.15;1.50;;;;;;;21.65;100.00;100575.91;6313532;28;20052;-71
2023/08/25 00:39:25;;;;;;;5.90;1.90;;;;;;;;;;6309017;28;20053;-71
2023/08/25 00:42:27;;;;;;;2.80;1.88;;;;;;;21.65;100.00;100569.72;6301369;28;20044;-71
2023/08/25 00:45:30;;;;;;;1.42;1.25;;;;;;;21.59;100.00;100576.56;6300740;28;20063;-71
2023/08/25 00:48:32;;;;;;;2.72;1.55;;;;;;;21.56;100.00;100576.88;6301196;28;20052;-71
2023/08/25 00:51:33;;;;;;;5.03;1.30;;;;;;;21.55;100.00;100575.19;6300931;28;20080;-71
2023/08/25 00:54:35;;;;;;;3.30;1.95;;;;;;;21.53;100.00;100570.00;6314487;28;20048;-71
2023/08/25 00:57:37;;;;;;;4.07;1.80;;;;;;;21.50;100.00;100574.81;6319622;28;20431;-71
2023/08/25 01:00:40;;;;;;;2.60;1.83;;;;;;;21.47;100.00;100567.94;6326174;28;20051;-71
2023/08/25 01:03:42;;;;;;;2.65;1.48;;;;;;;21.43;100.00;100571.09;6316380;28;20056;-71
2023/08/25 01:06:44;;;;;;;3.03;1.80;;;;;;;21.40;100.00;100576.78;6325443;28;20048;-71
2023/08/25 01:09:46;;;;;;;2.80;1.52;;;;;;;21.39;100.00;100585.75;6326211;28;20128;-71
2023/08/25 01:12:59;;;;;;;2.97;1.63;;;;;;;21.39;100.00;100588.44;6325585;28;20047;-71
2023/08/25 01:16:06;;;;;;;2.63;1.38;;;;;;;21.37;100.00;100583.25;6325488;28;20138;-71
2023/08/25 01:19:20;;;;;;;3.45;1.40;;;;;;;21.38;100.00;100557.34;6325421;28;20048;-71
2023/08/25 01:22:28;;;;;;;3.70;1.92;;;;;;;21.38;100.00;100568.88;6325465;28;20352;-71
2023/08/25 01:25:31;;;;;;;1.85;1.42;;;;;;;21.36;100.00;100580.75;6316528;28;20372;-71
2023/08/25 01:28:33;;;;;;;4.88;2.45;;;;;;;21.34;100.00;100588.91;6325360;28;20044;-71
2023/08/25 01:31:34;;;;;;;2.42;1.67;;;;;;;21.31;100.00;100591.91;6325242;28;20051;-71
2023/08/25 01:34:37;;;;;;;3.25;2.10;;;;;;;21.28;100.00;100579.66;6325350;28;20052;-71
2023/08/25 01:37:43;;;;;;;5.63;2.80;;;;;;;21.28;100.00;100578.81;6325108;28;20059;-71
2023/08/25 01:40:54;;;;;;;3.15;1.92;;;;;;;21.32;100.00;100587.41;6325522;28;20051;-71
2023/08/25 01:43:57;;;;;;;2.30;1.80;;;;;;;21.33;100.00;100581.88;6325380;28;20063;-71
2023/08/25 01:47:02;;;;;;;4.38;2.08;;;;;;;21.29;100.00;100575.97;6324849;28;20215;-71
2023/08/25 01:50:05;;;;;;;7.43;2.15;;;;;;;21.33;100.00;100589.06;6325195;28;20051;-70
2023/08/25 01:53:09;;;;;;;7.22;2.22;;;;;;;21.22;100.00;100593.63;6325171;28;20054;-71
2023/08/25 01:56:12;;;;;;;1.75;1.48;;;;;;;21.20;100.00;100597.44;6324597;28;20052;-71
2023/08/25 01:59:13;;;;;;;4.63;2.13;;;;;;;21.15;100.00;100589.88;6325386;28;20052;-71
2023/08/25 02:02:14;;;;;;;3.33;1.80;;;;;;;21.11;100.00;100585.84;6324899;28;20044;-71
2023/08/25 02:05:16;;;;;;;2.22;1.80;;;;;;;21.00;100.00;100594.09;6323723;28;20051;-71
2023/08/25 02:08:17;;;;;;;1.83;1.63;;;;;;;20.92;100.00;100602.03;6325071;28;20059;-71
2023/08/25 02:11:20;;;;;;;2.63;1.90;;;;;;;20.90;100.00;100601.38;6324630;28;20052;-71
2023/08/25 02:14:22;;;;;;;4.22;1.50;;;;;;;20.90;100.00;100594.19;6327121;28;20443;-71
2023/08/25 02:17:23;;;;;;;3.05;1.70;;;;;;;20.91;100.00;100587.84;6329755;28;20051;-71
2023/08/25 02:20:25;;;;;;;2.63;1.80;;;;;;;20.91;100.00;100598.53;6329886;28;20355;-71
2023/08/25 02:23:26;;;;;;;4.05;2.00;;;;;;;20.90;100.00;100588.00;6329766;28;20044;-71
2023/08/25 02:26:29;;;;;;;3.58;2.00;;;;;;;20.90;100.00;100596.03;6329254;28;20052;-71
2023/08/25 02:29:31;;;;;;;4.18;1.95;;;;;;;20.86;100.00;100589.31;6329191;28;20051;-70
2023/08/25 02:32:32;;;;;;;5.00;2.33;;;;;;;20.85;100.00;100577.78;6329135;28;20048;-71
2023/08/25 02:35:34;;;;;;;3.08;2.15;;;;;;;20.81;100.00;100578.25;6310832;28;20052;-71
2023/08/25 02:38:36;;;;;;;4.72;1.90;;;;;;;20.70;100.00;100592.63;6317395;28;20436;-70
2023/08/25 02:41:38;;;;;;;2.90;1.70;;;;;;;20.64;100.00;100587.91;6322633;28;20419;-71
2023/08/25 02:44:40;;;;;;;5.05;2.10;;;;;;;20.68;100.00;100589.28;6328839;28;20051;-71
2023/08/25 02:47:41;;;;;;;2.38;1.88;;;;;;;20.66;100.00;100583.25;6329210;28;20052;-71
2023/08/25 02:50:42;;;;;;;4.00;2.10;;;;;;;20.59;100.00;100587.53;6329007;28;20059;-71
2023/08/25 02:53:44;;;;;;;3.55;1.92;;;;;;;20.55;100.00;100573.63;6320124;28;20357;-71
2023/08/25 02:56:46;;;;;;;4.40;1.90;;;;;;;20.52;100.00;100580.09;6328597;28;20059;-71
2023/08/25 02:59:48;;;;;;;6.38;1.90;;;;;;;20.52;100.00;100576.59;6328768;28;20044;-71
2023/08/25 03:02:50;;;;;;;5.30;2.22;;;;;;;20.51;100.00;100575.75;6328925;28;20044;-71
2023/08/25 03:05:51;;;;;;;4.25;2.30;;;;;;;20.47;100.00;100576.16;6328306;28;20044;-73
2023/08/25 03:08:52;;;;;;;3.20;1.95;;;;;;;20.44;100.00;100579.16;6328623;28;20356;-71
2023/08/25 03:11:55;;;;;;;5.43;2.13;;;;;;;20.37;100.00;100573.56;6328369;28;20052;-71
2023/08/25 03:14:57;;;;;;;3.42;1.90;;;;;;;20.33;100.00;100571.34;6328163;28;20059;-71
2023/08/25 03:17:58;;;;;;;3.10;2.10;;;;;;;20.35;100.00;100566.69;6328439;28;20044;-73
2023/08/25 03:20:59;;;;;;;5.85;2.28;;;;;;;20.30;100.00;100552.94;6328557;28;20059;-73
2023/08/25 03:24:01;;;;;;;5.25;2.60;;;;;;;20.24;100.00;100557.06;6328229;28;20036;-72
2023/08/25 03:27:04;;;;;;;3.72;2.40;;;;;;;20.17;100.00;100558.66;6318333;28;20459;-71
2023/08/25 03:30:06;;;;;;;5.05;2.42;;;;;;;20.20;100.00;100550.34;6328220;28;20048;-72
2023/08/25 03:33:08;;;;;;;6.10;2.80;;;;;;;20.22;100.00;100543.88;6327890;28;20094;-73
2023/08/25 03:36:09;;;;;;;3.63;2.20;;;;;;;20.25;100.00;100540.88;6327779;28;20051;-71
2023/08/25 03:39:10;;;;;;;7.13;2.67;;;;;;;20.24;100.00;100554.38;6327782;28;20454;-73
2023/08/25 03:42:13;;;;;;;5.93;3.03;;;;;;;20.22;100.00;100548.38;6327953;28;20052;-70
2023/08/25 03:45:15;;;;;;;4.15;2.30;;;;;;;20.18;100.00;100547.81;6327244;28;20059;-73
2023/08/25 03:48:16;;;;;;;6.00;2.38;;;;;;;20.13;100.00;100544.78;6319275;28;20059;-72
2023/08/25 03:51:17;;;;;;;4.72;2.67;;;;;;;20.09;100.00;100543.38;6321263;28;20064;-69
2023/08/25 03:54:19;;;;;;;5.60;2.85;;;;;;;20.07;100.00;100539.16;6314696;28;20048;-73
2023/08/25 03:57:22;;;;;;;5.95;2.70;;;;;;;20.02;100.00;100535.13;6327192;28;20078;-73
2023/08/25 04:00:23;;;;;;;5.47;2.20;;;;;;;19.98;100.00;100527.56;6303825;28;20455;-73
2023/08/25 04:03:24;;;;;;;7.13;2.85;;;;;;;19.91;100.00;100534.47;6302303;28;20048;-73
2023/08/25 04:06:26;;;;;;;4.25;2.70;;;;;;;19.92;100.00;100534.31;6301772;28;20060;-73
2023/08/25 04:09:27;;;;;;;4.50;2.42;;;;;;;19.90;100.00;100530.16;6302262;28;20052;-73
2023/08/25 04:12:30;;;;;;;4.03;2.50;;;;;;;19.88;100.00;100537.44;6301893;28;20044;-73
2023/08/25 04:15:32;;;;;;;3.75;2.55;;;;;;;19.86;100.00;100537.59;6311752;28;20049;-73
2023/08/25 04:18:34;;;;;;;5.78;3.28;;;;;;;19.81;100.00;100537.19;6313257;28;20048;-73
2023/08/25 04:21:35;;;;;;;6.50;2.88;;;;;;;19.79;100.00;100533.81;6314495;28;20344;-73
2023/08/25 04:24:36;;;;;;;8.05;3.50;;;;;;;19.83;100.00;100540.53;6312429;28;20051;-73
2023/08/25 04:27:39;;;;;;;8.60;3.70;;;;;;;19.83;100.00;100537.88;6314654;28;20044;-73
2023/08/25 04:30:40;;;;;;;5.97;3.42;;;;;;;19.86;100.00;100547.44;6317544;28;20055;-72
2023/08/25 04:33:42;;;;;;;4.22;3.20;;;;;;;19.84;100.00;100544.03;6311881;28;20427;-73
2023/08/25 04:36:45;;;;;;;5.28;3.13;;;;;;;19.82;100.00;100544.22;6314124;28;20066;-73
2023/08/25 04:39:46;;;;;;;6.57;3.63;;;;;;;19.77;100.00;100539.31;6313647;28;20351;-73
2023/08/25 04:42:49;;;;;;;10.55;3.75;;;;;;;19.82;100.00;100530.03;6313178;28;20041;-73
2023/08/25 04:45:50;;;;;;;6.00;3.70;;;;;;;19.84;100.00;100533.38;6312628;28;20458;-73
2023/08/25 04:48:52;;;;;;;5.25;3.30;;;;;;;19.73;100.00;100523.75;6313639;28;20048;-72
2023/08/25 04:51:53;;;;;;;7.30;4.35;;;;;;;19.66;100.00;100520.81;6314106;28;20048;-72
2023/08/25 04:54:55;;;;;;;11.05;3.92;;;;;;;19.71;100.00;100529.25;6313212;28;20048;-73
2023/08/25 04:57:57;;;;;;;6.40;3.72;;;;;;;19.76;100.00;100526.13;6314318;28;20049;-72
2023/08/25 05:00:59;;;;;;;9.68;4.70;;;;;;;19.78;100.00;100521.47;6314593;28;20040;-72
2023/08/25 05:04:00;;;;;;;9.32;4.82;;;;;;;19.77;100.00;100509.97;6311522;28;20532;-72
2023/08/25 05:07:02;;;;;;;7.20;4.57;;;;;;;19.78;100.00;100518.81;6303314;28;20048;-71
2023/08/25 05:10:04;;;;;;;8.80;4.80;;;;;;;19.73;100.00;100508.59;6300732;28;20059;-71
2023/08/25 05:13:07;;;;;;;12.95;5.13;;;;;;;19.70;100.00;100503.53;6308663;28;20048;-72
2023/08/25 05:16:09;;;;;;;8.00;5.38;;;;;;;19.58;100.00;100503.88;6322937;28;20052;-71
2023/08/25 05:19:13;;;;;;;7.22;5.07;;;;;;;19.59;100.00;100506.38;6325543;28;20044;-72
2023/08/25 05:22:15;;;;;;;13.65;5.90;;;;;;;19.51;100.00;100508.91;6325651;28;20047;-71
2023/08/25 05:25:16;;;;;;;9.70;5.15;;;;;;;19.61;100.00;100508.91;6325151;28;20052;-72
2023/08/25 05:28:19;;;;;;;7.85;4.75;;;;;;;19.70;100.00;100518.69;6325485;28;20055;-71
2023/08/25 05:31:20;;;;;;;11.07;4.05;;;;;;;19.80;100.00;100518.66;6325346;28;20047;-72
2023/08/25 05:34:22;;;;;;;7.00;4.43;;;;;;;19.82;100.00;100517.53;6318863;28;20360;-72
2023/08/25 05:37:23;;;;;;;10.88;5.00;;;;;;;19.88;100.00;100521.44;6325153;28;20066;-72
2023/08/25 05:40:25;;;;;;;9.45;4.78;;;;;;;19.84;100.00;100523.53;6325466;28;20059;-72
2023/08/25 05:43:28;;;;;;;7.32;4.38;;;;;;;19.88;100.00;100524.94;6325342;28;20044;-72
2023/08/25 05:46:30;;;;;;;12.32;6.50;;;;;;;19.85;100.00;100532.38;6324946;28;20048;-72
2023/08/25 05:49:31;;;;;;;12.32;7.13;;;;;;;19.87;100.00;100533.94;6324787;28;20052;-72
2023/08/25 05:52:32;;;;;;;9.90;5.95;;;;;;;19.88;100.00;100535.59;6324992;28;20044;-72
2023/08/25 05:55:34;;;;;;;8.07;4.68;;;;;;;19.92;100.00;100534.31;6334807;22;20383;-71
2023/08/25 05:58:37;;;;;;;12.77;5.40;;;;;;;19.95;100.00;100539.38;6250488;28;20061;-71
2023/08/25 06:01:38;;;;;;;13.73;5.80;;;;;;;19.94;100.00;100545.72;6233129;28;20050;-72
2023/08/25 06:04:40;;;;;;;10.50;5.40;;;;;;;19.98;100.00;100539.09;6225790;28;20045;-71
2023/08/25 06:07:41;;;;;;;13.07;5.05;;;;;;;19.99;100.00;100540.75;6225802;28;20046;-71
2023/08/25 06:10:42;;;;;;;8.40;3.53;;;;;;;20.03;100.00;100543.97;6226137;28;20053;-71
2023/08/25 06:13:45;;;;;;;10.25;5.32;;;;;;;20.05;100.00;100541.16;6225668;28;20350;-71
2023/08/25 06:16:46;;;;;;;10.00;4.88;;;;;;;20.05;100.00;100560.66;6225551;28;20062;-71
2023/08/25 06:19:48;;;;;;;8.43;4.60;;;;;;;20.07;100.00;100556.00;6225808;28;20056;-71
2023/08/25 06:22:49;;;;;;;13.18;7.72;;;;;;;19.93;100.00;100565.34;6225762;28;20042;-71
2023/08/25 06:25:50;;;;;;;18.98;7.65;;;;;;;19.99;100.00;100553.28;6225314;28;20046;-70
2023/08/25 06:28:56;;;;;;;11.82;6.95;;;;;;;20.02;100.00;100552.94;6225665;28;20061;-70
2023/08/25 06:31:57;;;;;;;16.52;8.82;;;;;;;20.05;100.00;100547.31;6225377;28;20057;-70
2023/08/25 06:34:59;;;;;;;14.63;7.90;;;;;;;20.11;100.00;100551.22;6225022;28;20115;-71
2023/08/25 06:38:02;;;;;;;13.93;8.55;;;;;;;20.16;100.00;100540.94;6225511;28;20045;-70
2023/08/25 06:41:04;;;;;;;17.75;8.23;;;;;;;20.17;100.00;100548.00;6225330;28;20177;-71
2023/08/25 06:44:07;;;;;;;17.85;7.97;;;;;;;20.22;100.00;100549.22;6225486;28;20049;-71
2023/08/25 06:47:08;;;;;;;15.25;7.13;;;;;;;20.25;100.00;100546.22;6225168;28;20140;-71
2023/08/25 06:50:10;;;;;;;11.68;5.88;;;;;;;20.30;100.00;100539.59;6225233;28;20438;-71
2023/08/25 06:53:12;;;;;;;19.77;8.68;;;;;;;20.32;100.00;100551.81;6225159;28;20081;-71
2023/08/25 06:56:13;;;;;;;18.90;10.38;;;;;;;20.35;100.00;100538.19;6224766;28;20046;-71
2023/08/25 06:59:16;;;;;;;13.93;7.43;;;;;;;20.45;100.00;100535.44;6225364;28;20050;-72
2023/08/25 07:02:17;;;;;;;17.90;7.97;;;;;;;20.44;100.00;100531.94;6228006;28;20102;-71
2023/08/25 07:05:19;;;;;;;19.40;10.40;;;;;;;20.43;100.00;100532.91;6228546;28;20057;-71
2023/08/25 07:08:21;;;;;;;15.65;8.73;;;;;;;20.46;100.00;100524.63;6229079;28;20438;-71
2023/08/25 07:11:22;;;;;;;16.40;9.07;;;;;;;20.46;100.00;100526.44;6229325;28;20054;-72
2023/08/25 07:14:25;;;;;;;17.50;8.45;;;;;;;20.47;100.00;100522.78;6228385;28;20453;-71
2023/08/25 07:17:26;;;;;;;21.88;8.55;;;;;;;20.48;100.00;100535.16;6233211;28;20062;-71
2023/08/25 07:20:28;;;;;;;17.02;8.75;;;;;;;20.46;100.00;100521.09;6230496;28;20050;-70
2023/08/25 07:23:29;;;;;;;12.90;7.47;;;;;;;20.55;100.00;100524.72;6228605;28;20135;-70
2023/08/25 07:26:31;;;;;;;16.00;9.05;;;;;;;20.58;100.00;100522.59;6228616;28;20053;-70
2023/08/25 07:29:37;;;;;;;17.40;8.65;;;;;;;20.62;100.00;100525.78;6220956;28;20485;-70
2023/08/25 07:32:38;;;;;;;17.55;8.38;;;;;;;20.65;100.00;100521.00;6228046;28;20458;-70
2023/08/25 07:35:41;;;;;;;13.93;6.05;;;;;;;20.69;100.00;100509.00;6228192;28;20052;-70
2023/08/25 07:38:42;;;;;;;16.02;9.13;;;;;;;20.69;100.00;100524.19;6228679;28;20054;-70
2023/08/25 07:41:43;;;;;;;21.40;10.40;;;;;;;20.73;100.00;100536.25;6228634;28;20053;-71
2023/08/25 07:44:48;;;;;;;19.88;10.20;;;;;;;20.68;100.00;100536.72;6228607;28;20049;-70
2023/08/25 07:47:49;;;;;;;16.95;9.45;;;;;;;20.72;100.00;100537.25;6228288;28;20057;-70
2023/08/25 07:50:51;;;;;;;17.05;9.23;;;;;;;20.80;100.00;100552.50;6228271;28;20061;-70
2023/08/25 07:53:52;;;;;;;16.70;8.23;;;;;;;20.83;100.00;100546.84;6228145;28;20434;-71
2023/08/25 07:56:53;;;;;;;17.00;8.60;;;;;;;20.86;100.00;100536.72;6227828;28;20058;-70
2023/08/25 07:59:56;;;;;;;22.15;9.68;;;;;;;20.89;100.00;100546.22;6227755;28;20054;-70
2023/08/25 08:02:57;;;;;;;21.00;10.30;;;;;;;20.87;100.00;100554.41;6227733;28;20350;-70
2023/08/25 08:05:59;;;;;;;25.00;10.50;;;;;;;20.94;100.00;100557.31;6215673;28;20046;-71
2023/08/25 08:09:01;;;;;;;21.50;10.18;;;;;;;21.05;100.00;100564.25;6223685;28;20049;-70
2023/08/25 08:12:02;;;;;;;18.83;9.68;;;;;;;21.11;100.00;100563.63;6227303;28;20045;-70
2023/08/25 08:15:06;;;;;;;17.45;7.75;;;;;;;21.17;100.00;100565.69;6227156;28;20042;-70
2023/08/25 08:18:08;;;;;;;22.23;9.40;;;;;;;21.22;100.00;100566.06;6227683;28;20355;-71
2023/08/25 08:21:09;;;;;;;18.30;9.65;;;;;;;21.32;100.00;100574.88;6227442;28;20052;-71
2023/08/25 08:24:10;;;;;;;16.83;8.82;;;;;;;21.37;100.00;100559.19;6227549;28;20537;-69
2023/08/25 08:27:12;;;;;;;16.05;9.43;;;;;;;21.40;100.00;100568.75;6227317;28;20054;-70
2023/08/25 08:30:16;;;;;;;14.23;8.70;;;;;;;21.47;100.00;100572.47;6227495;28;20056;-68
2023/08/25 08:33:18;;;;;;;16.58;7.75;;;;;;;21.49;100.00;100578.50;6227912;28;20050;-69
2023/08/25 08:36:19;;;;;;;15.00;7.25;;;;;;;21.54;100.00;100568.16;6227180;28;20131;-68
2023/08/25 08:39:21;;;;;;;19.13;8.77;;;;;;;21.55;100.00;100569.84;6227301;28;20084;-69
2023/08/25 08:42:23;;;;;;;12.90;7.93;;;;;;;21.62;100.00;100567.38;6226971;28;20098;-69
2023/08/25 08:45:27;;;;;;;14.57;7.68;;;;;;;21.62;100.00;100567.38;6226782;28;20058;-69
2023/08/25 08:48:29;;;;;;;13.57;6.70;;;;;;;21.60;100.00;100564.84;6226995;28;20450;-69
2023/08/25 08:51:31;;;;;;;12.55;6.72;;;;;;;21.64;100.00;100568.06;6225446;28;20062;-68
2023/08/25 08:54:35;;;;;;;11.13;6.53;;;;;;;21.63;100.00;100566.38;6220423;28;20050;-68
2023/08/25 08:57:36;;;;;;;12.65;5.68;;;;;;;21.69;100.00;100566.59;6224902;28;20370;-68
2023/08/25 09:00:40;;;;;;;8.48;5.72;;;;;;;21.69;100.00;100571.09;6226719;28;20054;-68
2023/08/25 09:03:47;;;;;;;13.38;5.38;;;;;;;21.68;100.00;100585.47;6226748;28;20078;-68
2023/08/25 09:06:51;;;;;;;12.00;6.43;;;;;;;21.73;100.00;100584.00;6226118;28;20525;-68
2023/08/25 09:09:52;;;;;;;13.88;6.88;;;;;;;21.80;100.00;100573.50;6226982;28;20348;-68
2023/08/25 09:12:53;;;;;;;13.10;6.20;;;;;;;21.83;100.00;100575.84;6218359;28;20045;-68
2023/08/25 09:15:56;;;;;;;12.65;7.00;;;;;;;21.83;100.00;100575.84;6226031;28;20057;-68
2023/08/25 09:19:01;;;;;;;6.95;4.38;;;;;;;21.85;100.00;100581.06;6226042;28;20442;-68
2023/08/25 09:22:03;;;;;;;6.80;4.05;;;;;;;21.83;100.00;100585.72;6226111;28;20049;-68
2023/08/25 09:25:04;;;;;;;11.63;6.65;;;;;;;21.81;100.00;100607.28;6228692;28;20050;-69
2023/08/25 09:28:06;;;;;;;10.32;5.32;;;;;;;21.86;100.00;100602.31;6226304;28;20046;-68
2023/08/25 09:31:20;;;;;;;10.98;5.40;;;;;;;21.85;100.00;100605.16;6226293;28;20370;-68
2023/08/25 09:34:22;;;;;;;7.97;4.68;;;;;;;21.89;100.00;100602.00;6225887;28;20449;-68
2023/08/25 09:37:39;;;;;;;7.55;4.75;;;;;;;21.85;100.00;100599.81;6226166;28;20054;-68
2023/08/25 09:40:46;;;;;;;9.15;4.13;;;;;;;21.81;100.00;100603.78;6226229;28;20140;-68
2023/08/25 09:43:48;;;;;;;9.45;6.03;;;;;;;21.81;100.00;100607.28;6226031;28;20350;-68
2023/08/25 09:46:51;;;;;;;9.57;5.50;;;;;;;21.89;100.00;100606.47;6225562;28;20073;-69
2023/08/25 09:49:53;;;;;;;10.10;4.65;;;;;;;21.93;100.00;100599.81;6226091;28;20057;-68
2023/08/25 09:52:55;;;;;;;7.03;4.93;;;;;;;21.84;100.00;100593.56;6225999;28;20053;-68
2023/08/25 09:56:02;;;;;;;10.73;4.85;;;;;;;21.85;100.00;100594.44;6225655;28;20046;-68
2023/08/25 09:59:04;;;;;;;6.90;4.18;;;;;;;21.83;100.00;100591.91;6225822;28;20054;-69
2023/08/25 10:02:11;;;;;;;6.10;3.42;;;;;;;21.79;100.00;100614.63;6226010;28;20061;-69
2023/08/25 10:05:13;;;;;;;8.63;3.33;;;;;;;21.75;100.00;100615.94;6225503;28;20046;-68
2023/08/25 10:08:15;;;;;;;4.72;3.03;;;;;;;21.75;100.00;100632.81;6226035;28;20064;-68
2023/08/25 10:11:20;;;;;;;9.30;4.50;;;;;;;21.74;100.00;100611.59;6225707;28;20042;-69
2023/08/25 10:14:25;;;;;;;10.15;4.20;;;;;;;21.73;100.00;100599.22;6225635;28;20049;-73
2023/08/25 10:17:30;;;;;;;9.95;4.80;;;;;;;21.77;100.00;100596.06;6225840;28;20050;-69
2023/08/25 10:20:34;;;;;;;7.20;4.75;;;;;;;21.76;100.00;100591.72;6225525;28;20461;-69
2023/08/25 10:23:38;;;;;;;6.63;3.65;;;;;;;21.78;100.00;100572.81;6225687;28;20112;-69
2023/08/25 10:26:40;;;;;;;6.15;3.30;;;;;;;21.74;100.00;100566.09;6225328;28;20362;-69
2023/08/25 10:29:42;;;;;;;6.43;3.45;;;;;;;21.75;100.00;100573.97;6225487;28;20335;-68
2023/08/25 10:32:55;;;;;;;5.88;3.90;;;;;;;21.77;100.00;100569.31;6225480;28;20445;-69
2023/08/25 10:35:57;;;;;;;7.43;3.97;;;;;;;21.77;100.00;100565.81;6228398;28;20050;-69
2023/08/25 10:39:08;;;;;;;5.72;3.30;;;;;;;21.78;100.00;100587.03;6229998;28;20053;-69
2023/08/25 10:42:10;;;;;;;7.25;4.10;;;;;;;21.77;100.00;100595.22;6229370;28;20045;-69
2023/08/25 10:45:12;;;;;;;8.93;4.90;;;;;;;21.71;100.00;100611.88;6228528;28;20061;-69
2023/08/25 10:48:17;;;;;;;7.03;4.32;;;;;;;21.63;100.00;100615.38;6228817;28;20362;-69
2023/08/25 10:51:20;;;;;;;11.98;4.78;;;;;;;21.60;100.00;100593.44;6229012;28;20062;-69
2023/08/25 10:54:22;;;;;;;7.60;4.88;;;;;;;21.57;100.00;100599.09;6229514;28;20508;-69
2023/08/25 10:57:41;;;;;;;7.60;4.05;;;;;;;21.58;100.00;100598.13;6229374;28;20081;-69
2023/08/25 11:00:44;;;;;;;9.35;6.05;;;;;;;21.56;100.00;100584.06;6222700;28;20060;-69
2023/08/25 11:04:04;;;;;;;5.18;3.58;;;;;;;21.56;100.00;100574.19;6229364;28;20104;-69
2023/08/25 11:07:06;;;;;;;5.88;3.92;;;;;;;21.52;100.00;100567.47;6229141;28;20139;-69
2023/08/25 11:10:13;;;;;;;8.27;4.00;;;;;;;21.53;100.00;100550.47;6229587;28;20434;-69
2023/08/25 11:13:16;;;;;;;8.85;4.30;;;;;;;21.55;100.00;100539.59;6229133;28;20366;-69
2023/08/25 11:16:18;;;;;;;9.30;4.85;;;;;;;21.56;100.00;100511.84;6228797;28;20050;-69
2023/08/25 11:19:20;;;;;;;8.07;4.75;;;;;;;21.57;100.00;100503.66;6229060;28;20434;-70
2023/08/25 11:22:22;;;;;;;13.55;5.70;;;;;;;21.56;100.00;100507.34;6228880;28;20046;-70
2023/08/25 11:25:25;;;;;;;7.55;4.50;;;;;;;21.55;100.00;100512.84;6228880;28;20054;-69
2023/08/25 11:28:26;;;;;;;8.00;4.07;;;;;;;21.57;100.00;100524.22;6229222;28;20046;-69
2023/08/25 11:31:29;;;;;;;8.63;5.25;;;;;;;21.61;100.00;100542.47;6228889;28;20434;-70
2023/08/25 11:34:32;;;;;;;8.35;4.72;;;;;;;21.51;100.00;100526.53;6228527;28;20049;-70
2023/08/25 11:37:33;;;;;;;8.68;4.65;;;;;;;21.51;100.00;100536.38;6228410;28;20050;-70
2023/08/25 11:40:39;;;;;;;11.55;5.57;;;;;;;21.49;100.00;100544.56;6228971;28;20053;-70
2023/08/25 11:43:41;;;;;;;11.77;6.03;;;;;;;21.49;100.00;100546.41;6228545;28;20054;-71
2023/08/25 11:46:43;;;;;;;14.60;7.38;;;;;;;21.43;100.00;100549.69;6227712;28;20057;-70
2023/08/25 11:49:45;;;;;;;13.93;7.63;;;;;;;21.41;100.00;100551.69;6228286;28;20350;-69
2023/08/25 11:52:47;;;;;;;11.10;6.43;;;;;;;21.37;100.00;100547.66;6228163;28;20053;-70
2023/08/25 11:56:01;;;;;;;11.85;6.78;;;;;;;21.37;100.00;100536.97;6227612;28;20054;-70
2023/08/25 11:59:03;;;;;;;12.35;7.65;;;;;;;21.39;100.00;100551.00;6228349;28;20053;-70
2023/08/25 12:02:04;;;;;;;14.50;7.95;;;;;;;21.41;100.00;100554.38;6228087;28;20450;-70
2023/08/25 12:05:08;;;;;;;12.63;7.30;;;;;;;21.45;100.00;100539.69;6227973;28;20046;-70
2023/08/25 12:08:09;;;;;;;10.00;6.13;;;;;;;21.51;100.00;100531.88;6228164;28;20054;-70
2023/08/25 12:11:11;;;;;;;14.15;7.75;;;;;;;21.53;100.00;100539.75;6228147;28;20053;-70
2023/08/25 12:14:24;;;;;;;14.93;7.00;;;;;;;21.49;100.00;100565.97;6227616;28;20045;-70
2023/08/25 12:17:27;;;;;;;12.85;7.15;;;;;;;21.52;100.00;100589.69;6227944;28;20058;-69
2023/08/25 12:20:30;;;;;;;15.35;7.97;;;;;;;21.52;100.00;100603.06;6227848;28;20054;-70
2023/08/25 12:23:35;;;;;;;14.20;7.45;;;;;;;21.51;100.00;100622.78;6227539;28;20057;-70
2023/08/25 12:26:37;;;;;;;14.23;7.13;;;;;;;21.55;100.00;100619.81;6227413;28;20042;-70
2023/08/25 12:29:39;;;;;;;11.25;7.20;;;;;;;21.61;100.00;100640.56;6227394;28;20053;-70
2023/08/25 12:32:41;;;;;;;13.90;7.63;;;;;;;21.61;100.00;100651.28;6227593;28;20053;-70
2023/08/25 12:35:44;;;;;;;16.42;8.00;;;;;;;21.60;100.00;100649.59;6226839;28;20049;-69
2023/08/25 12:38:45;;;;;;;12.93;8.00;;;;;;;21.58;100.00;100655.13;6227386;28;20053;-69
2023/08/25 12:41:46;;;;;;;13.77;7.55;;;;;;;21.51;100.00;100662.91;6226426;28;20168;-70
2023/08/25 12:44:48;;;;;;;12.82;7.32;;;;;;;21.51;100.00;100662.91;6226200;28;20046;-70
2023/08/25 12:47:50;;;;;;;12.88;6.22;;;;;;;21.50;100.00;100668.41;6217537;28;20061;-70
2023/08/25 12:50:52;;;;;;;8.10;5.63;;;;;;;21.34;100.00;100652.22;6226889;28;20358;-71
2023/08/25 12:53:55;;;;;;;8.07;5.20;;;;;;;21.36;100.00;100653.75;6226660;28;20385;-70
2023/08/25 12:56:56;;;;;;;10.68;5.57;;;;;;;21.28;100.00;100659.00;6226411;28;20369;-70
2023/08/25 12:59:58;;;;;;;7.55;4.63;;;;;;;21.21;100.00;100657.91;6226962;28;20053;-69
2023/08/25 13:03:00;;;;;;;8.95;5.65;;;;;;;21.15;100.00;100656.72;6223279;28;20045;-70
2023/08/25 13:06:03;;;;;;;5.47;3.95;;;;;;;21.07;100.00;100651.28;6226274;28;20565;-71
2023/08/25 13:09:05;;;;;;;7.00;4.40;;;;;;;21.05;100.00;100639.91;6226529;28;20261;-71
2023/08/25 13:12:07;;;;;;;5.90;3.47;;;;;;;20.96;100.00;100619.44;6225996;28;20081;-72
2023/08/25 13:15:11;;;;;;;6.25;3.97;;;;;;;20.95;100.00;100601.75;6226045;28;20070;-72
2023/08/25 13:18:12;;;;;;;7.25;5.13;;;;;;;20.97;100.00;100579.22;6227267;28;20072;-72
2023/08/25 13:21:15;;;;;;;6.18;4.35;;;;;;;20.91;100.00;100553.13;6231418;28;20061;-73
2023/08/25 13:24:16;;;;;;;8.38;5.68;;;;;;;20.92;100.00;100535.25;6223925;28;20045;-72
2023/08/25 13:27:18;;;;;;;5.85;4.35;;;;;;;20.93;100.00;100510.22;6226583;28;20061;-73
2023/08/25 13:30:20;;;;;;;10.88;5.15;;;;;;;21.03;100.00;100473.56;6226232;28;20049;-72
2023/08/25 13:33:21;;;;;;;8.75;5.30;;;;;;;21.01;100.00;100448.81;6226077;28;20057;-73
2023/08/25 13:36:24;;;;;;;11.50;5.65;;;;;;;21.09;100.00;100440.03;6225414;28;20042;-73
2023/08/25 13:39:25;;;;;;;9.55;5.72;;;;;;;21.02;100.00;100411.25;6226022;28;20057;-73
2023/08/25 13:42:27;;;;;;;8.68;5.45;;;;;;;20.97;100.00;100402.88;6226022;28;20358;-72
2023/08/25 13:45:28;;;;;;;13.20;5.30;;;;;;;20.97;100.00;100402.03;6225770;28;20042;-72
2023/08/25 13:48:29;;;;;;;6.10;4.72;;;;;;;20.92;100.00;100397.16;6225996;28;20052;-72
2023/08/25 13:51:32;;;;;;;8.30;5.00;;;;;;;20.99;100.00;100416.09;6226152;28;20057;-72
2023/08/25 13:54:34;;;;;;;7.88;4.68;;;;;;;21.11;100.00;100416.66;6225579;28;20053;-72
2023/08/25 13:57:37;;;;;;;8.55;4.78;;;;;;;21.19;100.00;100408.69;6225761;28;20054;-72